Time;durP1;ratioP1;P1;durP2;ratioP2;P2;SDS_P1;SDS_P2;PMS_P1;PMS_P2;Temp;Humidity;BMP_temperature;BMP_pressure;BME280_temperature;BME280_humidity;BME280_pressure;Samples;Min_cycle;Max_cycle;Signal;HPM_P1;HPM_P2
2021/05/12 00:01:19;;;;;;;1.13;0.65;;;22.50;48.20;;;;;;5111372;28;20047;-41
2021/05/12 00:03:46;;;;;;;0.90;0.63;;;22.50;48.20;;;;;;5110992;28;20139;-40
2021/05/12 00:06:13;;;;;;;1.00;0.65;;;22.50;48.20;;;;;;5112287;28;20047;-40
2021/05/12 00:08:40;;;;;;;1.90;0.80;;;22.40;48.10;;;;;;5110963;27;20044;-40
2021/05/12 00:11:07;;;;;;;0.85;0.60;;;22.50;48.20;;;;;;5112030;27;20063;-40
2021/05/12 00:13:34;;;;;;;1.88;1.08;;;22.50;48.20;;;;;;5110981;28;20044;-40
2021/05/12 00:16:01;;;;;;;1.17;0.90;;;22.50;48.20;;;;;;5110630;28;20051;-40
2021/05/12 00:18:35;;;;;;;1.00;0.90;;;22.50;48.20;;;;;;5111717;28;20134;-40
2021/05/12 00:21:04;;;;;;;0.63;0.52;;;22.50;48.20;;;;;;5110293;27;20101;-43
2021/05/12 00:23:43;;;;;;;0.98;0.60;;;22.50;48.20;;;;;;5110281;27;20044;-40
2021/05/12 00:26:10;;;;;;;0.85;0.63;;;22.50;48.20;;;;;;5111955;28;20047;-42
2021/05/12 00:28:37;;;;;;;0.90;0.65;;;22.50;48.20;;;;;;5109456;28;20487;-40
2021/05/12 00:31:04;;;;;;;0.95;0.80;;;22.50;48.20;;;;;;5111905;28;20043;-41
2021/05/12 00:33:31;;;;;;;1.67;0.90;;;22.50;48.20;;;;;;5110356;28;20556;-40
2021/05/12 00:35:59;;;;;;;1.95;0.95;;;22.50;48.20;;;;;;5111304;27;20540;-41
2021/05/12 00:38:26;;;;;;;1.05;0.90;;;22.50;48.20;;;;;;5111689;28;20163;-40
2021/05/12 00:40:53;;;;;;;1.15;0.80;;;22.50;48.20;;;;;;5109953;28;20074;-41
2021/05/12 00:43:20;;;;;;;0.82;0.60;;;22.50;48.20;;;;;;5111793;28;20448;-40
2021/05/12 00:45:47;;;;;;;1.40;0.85;;;22.50;48.20;;;;;;5110635;28;20074;-42
2021/05/12 00:48:14;;;;;;;1.05;0.70;;;22.50;48.20;;;;;;5111296;28;20051;-40
2021/05/12 00:50:41;;;;;;;1.10;0.90;;;22.50;48.20;;;;;;5111418;28;20055;-40
2021/05/12 00:53:08;;;;;;;0.85;0.73;;;22.50;48.20;;;;;;5097346;28;20051;-39
2021/05/12 00:55:36;;;;;;;1.00;0.70;;;22.40;48.10;;;;;;5110792;28;20121;-39
2021/05/12 00:58:03;;;;;;;0.80;0.70;;;22.50;48.20;;;;;;5099905;28;20443;-40
2021/05/12 01:00:30;;;;;;;0.95;0.82;;;22.50;48.20;;;;;;5109646;28;20130;-39
2021/05/12 01:02:57;;;;;;;1.13;0.85;;;22.50;48.20;;;;;;5110933;28;20495;-40
2021/05/12 01:05:59;;;;;;;0.85;0.75;;;22.50;48.20;;;;;;5110872;28;20043;-40
2021/05/12 01:08:28;;;;;;;1.13;0.70;;;22.50;48.20;;;;;;5109480;28;20059;-39
2021/05/12 01:10:57;;;;;;;0.90;0.70;;;22.50;48.20;;;;;;5111504;28;20056;-40
2021/05/12 01:13:25;;;;;;;0.73;0.73;;;22.50;48.20;;;;;;5110203;28;20407;-39
2021/05/12 01:15:52;;;;;;;0.93;0.65;;;22.50;48.20;;;;;;5109136;28;20097;-40
2021/05/12 01:18:21;;;;;;;1.10;0.70;;;22.50;48.20;;;;;;5111005;28;20044;-40
2021/05/12 01:21:03;;;;;;;1.35;0.75;;;22.50;48.20;;;;;;5109298;28;20040;-40
2021/05/12 01:23:32;;;;;;;0.98;0.70;;;22.50;48.20;;;;;;5110859;28;20043;-40
2021/05/12 01:26:02;;;;;;;1.17;0.95;;;22.50;48.20;;;;;;5110097;28;20096;-40
2021/05/12 01:28:32;;;;;;;0.80;0.80;;;22.50;48.20;;;;;;5109027;28;20100;-40
2021/05/12 01:31:07;;;;;;;0.85;0.65;;;22.50;48.20;;;;;;5111374;28;20088;-41
2021/05/12 01:33:36;;;;;;;0.50;0.50;;;22.50;48.20;;;;;;5110094;28;20044;-40
2021/05/12 01:36:05;;;;;;;0.70;0.60;;;22.50;48.20;;;;;;5109458;28;20546;-40
2021/05/12 01:38:33;;;;;;;1.00;0.70;;;22.50;48.20;;;;;;5110332;28;20109;-40
2021/05/12 01:41:01;;;;;;;0.88;0.80;;;22.50;48.20;;;;;;5108810;28;20092;-42
2021/05/12 01:43:30;;;;;;;0.98;0.88;;;22.50;48.20;;;;;;5110900;28;20088;-42
2021/05/12 01:45:57;;;;;;;1.08;0.77;;;22.50;48.20;;;;;;5109572;28;20484;-41
2021/05/12 01:48:26;;;;;;;1.13;0.70;;;22.50;48.20;;;;;;5109497;28;20486;-39
2021/05/12 01:50:53;;;;;;;0.77;0.60;;;22.50;48.20;;;;;;5110761;28;20572;-43
2021/05/12 01:53:21;;;;;;;1.20;0.80;;;22.50;48.20;;;;;;5110906;28;20051;-39
2021/05/12 01:55:49;;;;;;;1.05;0.70;;;22.50;48.90;;;;;;5114215;28;20554;-40
2021/05/12 01:58:17;;;;;;;0.98;0.80;;;22.50;48.20;;;;;;5101224;28;20591;-41
2021/05/12 02:00:49;;;;;;;1.75;0.75;;;22.50;48.20;;;;;;5113513;28;20514;-41
2021/05/12 02:03:20;;;;;;;0.80;0.60;;;22.50;48.20;;;;;;5114620;28;20051;-40
2021/05/12 02:05:49;;;;;;;0.80;0.70;;;22.40;48.20;;;;;;5114054;27;20039;-40
2021/05/12 02:08:20;;;;;;;0.77;0.52;;;22.50;48.20;;;;;;5113409;28;20556;-40
2021/05/12 02:10:50;;;;;;;1.20;0.80;;;22.40;48.20;;;;;;5113790;28;20047;-40
2021/05/12 02:13:18;;;;;;;1.25;0.80;;;22.50;48.20;;;;;;5111959;28;20468;-40
2021/05/12 02:15:46;;;;;;;0.73;0.60;;;22.40;48.20;;;;;;5114800;27;20563;-40
2021/05/12 02:18:13;;;;;;;1.25;0.80;;;22.50;48.20;;;;;;5112999;28;20048;-41
2021/05/12 02:20:41;;;;;;;1.23;0.70;;;22.40;48.20;;;;;;5113554;28;20093;-43
2021/05/12 02:23:11;;;;;;;0.80;0.60;;;22.40;48.20;;;;;;5114204;28;20055;-40
2021/05/12 02:25:40;;;;;;;1.08;0.70;;;22.50;48.30;;;;;;5113019;27;20087;-43
2021/05/12 02:28:08;;;;;;;1.30;0.90;;;22.50;48.30;;;;;;5113114;27;20099;-40
2021/05/12 02:30:35;;;;;;;0.75;0.68;;;22.40;48.20;;;;;;5113187;28;20051;-41
2021/05/12 02:33:04;;;;;;;1.13;0.73;;;22.40;48.20;;;;;;5112059;28;20043;-42
2021/05/12 02:35:32;;;;;;;0.82;0.68;;;22.40;48.20;;;;;;5114322;28;20073;-40
2021/05/12 02:37:59;;;;;;;0.80;0.70;;;22.40;48.20;;;;;;5113204;27;20051;-41
2021/05/12 02:40:26;;;;;;;1.02;0.80;;;22.40;48.20;;;;;;5114446;27;20436;-41
2021/05/12 02:42:57;;;;;;;0.88;0.60;;;22.40;48.20;;;;;;5113406;28;20044;-41
2021/05/12 02:45:25;;;;;;;0.85;0.50;;;22.50;48.30;;;;;;5111873;28;20046;-39
2021/05/12 02:47:58;;;;;;;0.85;0.60;;;22.40;48.20;;;;;;5113384;28;20138;-41
2021/05/12 02:50:34;;;;;;;0.90;0.70;;;22.40;48.20;;;;;;5113021;28;20052;-41
2021/05/12 02:53:02;;;;;;;1.10;0.77;;;22.50;48.20;;;;;;5113136;28;20290;-41
2021/05/12 02:55:30;;;;;;;0.50;0.45;;;22.50;48.30;;;;;;5113786;28;20456;-40
2021/05/12 02:57:58;;;;;;;0.88;0.60;;;22.50;48.30;;;;;;5111183;27;20088;-40
2021/05/12 03:00:28;;;;;;;0.60;0.60;;;22.50;48.30;;;;;;5113123;28;20545;-42
2021/05/12 03:02:56;;;;;;;1.02;0.80;;;22.40;48.20;;;;;;5112842;28;20043;-39
2021/05/12 03:05:24;;;;;;;0.77;0.63;;;22.40;48.20;;;;;;5112621;27;20043;-40
2021/05/12 03:07:52;;;;;;;0.70;0.70;;;22.50;48.30;;;;;;5112111;28;20514;-40
2021/05/12 03:10:21;;;;;;;0.82;0.60;;;22.40;48.20;;;;;;5113011;27;20047;-40
2021/05/12 03:12:50;;;;;;;1.58;0.55;;;22.40;48.20;;;;;;5112146;28;20071;-44
2021/05/12 03:15:20;;;;;;;0.82;0.65;;;22.40;48.20;;;;;;5112651;28;20108;-40
2021/05/12 03:17:56;;;;;;;0.90;0.57;;;22.40;48.20;;;;;;5113506;27;20039;-39
2021/05/12 03:20:25;;;;;;;0.68;0.52;;;22.40;48.20;;;;;;5111883;27;20097;-39
2021/05/12 03:22:53;;;;;;;0.80;0.60;;;22.40;48.20;;;;;;5112084;28;20130;-41
2021/05/12 03:25:21;;;;;;;1.10;0.82;;;22.40;48.20;;;;;;5111842;28;20043;-43
2021/05/12 03:27:52;;;;;;;1.17;0.75;;;22.50;48.30;;;;;;5111449;28;20049;-39
2021/05/12 03:30:26;;;;;;;1.50;0.77;;;22.40;48.20;;;;;;5113078;28;20047;-40
2021/05/12 03:32:54;;;;;;;0.88;0.75;;;22.40;48.20;;;;;;5110589;27;20096;-39
2021/05/12 03:35:21;;;;;;;0.90;0.65;;;22.50;48.30;;;;;;5112386;28;20099;-41
2021/05/12 03:37:48;;;;;;;0.65;0.57;;;22.50;48.30;;;;;;5111970;28;20043;-39
2021/05/12 03:40:16;;;;;;;0.95;0.60;;;22.40;48.20;;;;;;5111932;28;20449;-42
2021/05/12 03:42:45;;;;;;;0.70;0.57;;;22.40;48.20;;;;;;5112602;28;20047;-41
2021/05/12 03:45:13;;;;;;;0.98;0.70;;;22.50;48.30;;;;;;5099299;28;20043;-39
2021/05/12 03:47:46;;;;;;;;;;;22.50;48.30;;;;;;5112643;28;20039;-42
2021/05/12 03:50:14;;;;;;;0.50;0.50;;;22.40;48.20;;;;;;5112646;28;20309;-43
2021/05/12 03:52:41;;;;;;;0.63;0.60;;;22.40;48.20;;;;;;5109350;28;20092;-41
2021/05/12 03:55:10;;;;;;;0.40;0.40;;;22.40;48.20;;;;;;5102718;28;20043;-42
2021/05/12 03:57:37;;;;;;;0.80;0.60;;;22.40;48.70;;;;;;5110780;28;20407;-42
2021/05/12 04:00:05;;;;;;;0.80;0.80;;;22.40;48.20;;;;;;5100933;28;20058;-42
2021/05/12 04:02:33;;;;;;;0.60;0.60;;;22.40;48.20;;;;;;5112400;28;20043;-42
2021/05/12 04:05:00;;;;;;;1.38;0.50;;;22.50;48.30;;;;;;5109733;28;20051;-43
2021/05/12 04:07:28;;;;;;;0.93;0.60;;;22.40;48.20;;;;;;5111429;28;20071;-42
2021/05/12 04:09:55;;;;;;;1.02;0.70;;;22.40;48.30;;;;;;5111140;28;20086;-41
2021/05/12 04:12:22;;;;;;;0.70;0.70;;;22.40;48.30;;;;;;5109938;28;20044;-41
2021/05/12 04:14:50;;;;;;;0.70;0.60;;;22.40;48.20;;;;;;5111496;28;20510;-40
2021/05/12 04:17:18;;;;;;;1.00;0.80;;;22.50;48.30;;;;;;5109814;28;20048;-40
2021/05/12 04:19:45;;;;;;;0.70;0.50;;;22.40;48.20;;;;;;5102450;28;20096;-40
2021/05/12 04:22:13;;;;;;;0.60;0.60;;;22.50;48.30;;;;;;5111317;28;20093;-40
2021/05/12 04:24:41;;;;;;;0.82;0.55;;;22.40;48.20;;;;;;5110661;28;20483;-41
2021/05/12 04:27:08;;;;;;;0.80;0.70;;;22.40;48.30;;;;;;5111960;28;20089;-40
2021/05/12 04:29:36;;;;;;;0.57;0.57;;;22.40;48.20;;;;;;5110192;28;20043;-40
2021/05/12 04:32:05;;;;;;;0.50;0.40;;;22.40;48.20;;;;;;5110821;27;20043;-40
2021/05/12 04:34:33;;;;;;;0.55;0.45;;;22.40;48.20;;;;;;5111539;28;20073;-40
2021/05/12 04:37:00;;;;;;;1.17;0.70;;;22.50;48.30;;;;;;5110910;27;20055;-41
2021/05/12 04:39:28;;;;;;;0.70;0.60;;;22.40;48.20;;;;;;5111779;27;20039;-41
2021/05/12 04:41:55;;;;;;;0.68;0.50;;;22.40;48.20;;;;;;5111003;28;20391;-42
2021/05/12 04:44:22;;;;;;;0.70;0.60;;;22.40;48.20;;;;;;5110033;28;20075;-40
2021/05/12 04:46:50;;;;;;;0.75;0.65;;;22.40;48.20;;;;;;5111448;28;20126;-40
2021/05/12 04:49:18;;;;;;;1.17;0.68;;;22.50;48.30;;;;;;5096177;28;20056;-40
2021/05/12 04:51:45;;;;;;;0.60;0.60;;;22.40;48.20;;;;;;5110825;28;20082;-40
2021/05/12 04:54:12;;;;;;;0.65;0.52;;;22.50;48.30;;;;;;5110320;28;20048;-42
2021/05/12 04:56:39;;;;;;;0.77;0.60;;;22.40;48.30;;;;;;5110062;28;20414;-44
2021/05/12 04:59:06;;;;;;;0.80;0.50;;;22.40;48.20;;;;;;5111317;28;20112;-40
2021/05/12 05:01:33;;;;;;;2.25;0.63;;;22.40;48.90;;;;;;5109749;28;20475;-43
2021/05/12 05:04:01;;;;;;;2.28;0.60;;;22.40;48.20;;;;;;5111305;27;20083;-41
2021/05/12 05:06:28;;;;;;;0.60;0.50;;;22.40;48.20;;;;;;5110573;28;20143;-41
2021/05/12 05:08:55;;;;;;;0.90;0.60;;;22.40;48.20;;;;;;5110371;28;20051;-42
2021/05/12 05:11:23;;;;;;;1.08;0.63;;;22.50;48.30;;;;;;5111097;28;20089;-43
2021/05/12 05:13:50;;;;;;;1.17;0.73;;;22.40;48.20;;;;;;5108811;28;20506;-42
2021/05/12 05:16:17;;;;;;;0.73;0.60;;;22.40;48.20;;;;;;5110453;28;20043;-40
2021/05/12 05:18:47;;;;;;;0.75;0.60;;;22.50;48.30;;;;;;5110093;28;20043;-44
2021/05/12 05:21:15;;;;;;;0.80;0.60;;;22.40;48.20;;;;;;5109101;28;20115;-42
2021/05/12 05:23:42;;;;;;;0.70;0.60;;;22.40;48.20;;;;;;5110509;28;20051;-42
2021/05/12 05:26:11;;;;;;;0.40;0.40;;;22.50;48.30;;;;;;5097380;28;20104;-43
2021/05/12 05:28:42;;;;;;;0.88;0.50;;;22.40;48.20;;;;;;5113505;28;20097;-41
2021/05/12 05:31:09;;;;;;;0.50;0.50;;;22.50;48.30;;;;;;5114909;28;20066;-41
2021/05/12 05:33:36;;;;;;;0.80;0.60;;;22.40;48.20;;;;;;5113063;28;20040;-40
2021/05/12 05:36:04;;;;;;;0.60;0.60;;;22.50;48.30;;;;;;5114899;28;20039;-40
2021/05/12 05:38:31;;;;;;;0.75;0.50;;;22.40;48.20;;;;;;5114577;28;20104;-40
2021/05/12 05:40:58;;;;;;;0.73;0.50;;;22.50;48.30;;;;;;5113807;27;20078;-40
2021/05/12 05:43:27;;;;;;;0.60;0.47;;;22.40;48.20;;;;;;5115214;28;20119;-40
2021/05/12 05:45:55;;;;;;;0.82;0.60;;;22.40;48.20;;;;;;5112624;28;20380;-39
2021/05/12 05:48:22;;;;;;;1.02;0.75;;;22.40;48.20;;;;;;5114610;27;20119;-40
2021/05/12 05:50:49;;;;;;;1.08;0.68;;;22.50;48.30;;;;;;5114022;28;20096;-40
2021/05/12 05:53:20;;;;;;;0.80;0.60;;;22.40;48.20;;;;;;5112683;28;20047;-42
2021/05/12 05:55:47;;;;;;;1.08;0.70;;;22.40;48.20;;;;;;5114017;28;20091;-42
2021/05/12 05:58:14;;;;;;;1.05;0.63;;;22.40;48.20;;;;;;5113433;28;20050;-40
2021/05/12 06:00:43;;;;;;;0.70;0.50;;;22.50;48.60;;;;;;5113600;27;20044;-40
2021/05/12 06:03:10;;;;;;;0.75;0.70;;;22.40;48.20;;;;;;5114102;28;20147;-40
2021/05/12 06:05:37;;;;;;;0.82;0.70;;;22.40;48.20;;;;;;5112414;28;20446;-40
2021/05/12 06:08:05;;;;;;;1.05;0.60;;;22.40;48.20;;;;;;5114383;28;20069;-39
2021/05/12 06:10:32;;;;;;;0.45;0.40;;;22.40;48.20;;;;;;5113150;28;20058;-39
2021/05/12 06:12:59;;;;;;;1.17;0.40;;;22.40;48.20;;;;;;5113431;28;20047;-39
2021/05/12 06:15:26;;;;;;;0.60;0.50;;;22.50;48.30;;;;;;5114012;28;20108;-40
2021/05/12 06:17:53;;;;;;;0.60;0.50;;;22.40;48.20;;;;;;5111572;28;20043;-39
2021/05/12 06:20:20;;;;;;;0.80;0.60;;;22.40;48.20;;;;;;5114317;28;20384;-39
2021/05/12 06:22:47;;;;;;;0.60;0.60;;;22.40;48.20;;;;;;5098630;28;20109;-40
2021/05/12 06:25:15;;;;;;;0.50;0.45;;;22.50;48.30;;;;;;5112719;27;20044;-39
2021/05/12 06:27:42;;;;;;;0.65;0.50;;;22.40;48.20;;;;;;5113992;28;20044;-40
2021/05/12 06:30:10;;;;;;;0.60;0.60;;;22.40;48.20;;;;;;5112322;28;20055;-40
2021/05/12 06:32:37;;;;;;;1.08;0.70;;;22.50;48.30;;;;;;5116690;27;20051;-42
2021/05/12 06:35:04;;;;;;;0.80;0.60;;;22.40;48.20;;;;;;5116489;27;20054;-40
2021/05/12 06:37:31;;;;;;;1.25;0.68;;;22.50;48.30;;;;;;5116907;27;20054;-42
2021/05/12 06:39:58;;;;;;;0.73;0.60;;;22.50;48.30;;;;;;5115769;27;20044;-40
2021/05/12 06:42:26;;;;;;;0.40;0.30;;;22.40;48.20;;;;;;5099402;27;20043;-44
2021/05/12 06:44:53;;;;;;;0.43;0.43;;;22.50;48.30;;;;;;5115646;28;20448;-41
2021/05/12 06:47:20;;;;;;;2.10;0.70;;;22.40;48.20;;;;;;5117490;27;20104;-40
2021/05/12 06:49:47;;;;;;;2.20;0.57;;;22.50;48.30;;;;;;5114842;28;20047;-41
2021/05/12 06:52:14;;;;;;;0.60;0.60;;;22.40;48.20;;;;;;5099071;28;20420;-42
2021/05/12 06:54:41;;;;;;;0.50;0.50;;;22.50;48.30;;;;;;5129122;27;20051;-44
2021/05/12 06:57:08;;;;;;;0.57;0.50;;;22.40;48.20;;;;;;5101752;28;20051;-42
2021/05/12 06:59:35;;;;;;;0.50;0.50;;;22.40;48.20;;;;;;5127142;27;20043;-41
2021/05/12 07:02:02;;;;;;;0.50;0.50;;;22.40;48.20;;;;;;5132750;27;20571;-42
2021/05/12 07:04:30;;;;;;;0.73;0.52;;;22.40;48.20;;;;;;5130674;27;20054;-40
2021/05/12 07:06:57;;;;;;;0.52;0.52;;;22.50;48.20;;;;;;5115902;27;20486;-41
2021/05/12 07:09:24;;;;;;;0.52;0.52;;;22.40;48.20;;;;;;5116208;27;20048;-41
2021/05/12 07:11:52;;;;;;;0.57;0.50;;;22.40;48.20;;;;;;5112600;28;20051;-43
2021/05/12 07:14:20;;;;;;;0.60;0.55;;;22.40;48.20;;;;;;5100998;27;20051;-40
2021/05/12 07:16:52;;;;;;;0.88;0.60;;;22.40;48.20;;;;;;5124484;27;20090;-40
2021/05/12 07:19:20;;;;;;;0.50;0.50;;;22.40;48.20;;;;;;5113134;27;20040;-41
2021/05/12 07:21:48;;;;;;;1.17;0.50;;;22.40;48.20;;;;;;5108127;27;20043;-41
2021/05/12 07:24:15;;;;;;;1.73;0.50;;;22.40;48.20;;;;;;5107430;28;20036;-42
2021/05/12 07:26:43;;;;;;;0.55;0.50;;;22.40;48.20;;;;;;5112617;28;20043;-40
2021/05/12 07:29:10;;;;;;;0.40;0.40;;;22.40;48.20;;;;;;5114322;27;20078;-40
2021/05/12 07:31:38;;;;;;;0.50;0.40;;;22.40;48.20;;;;;;5115499;27;20552;-40
2021/05/12 07:34:06;;;;;;;1.33;0.30;;;22.40;48.20;;;;;;5115378;27;20039;-40
2021/05/12 07:36:34;;;;;;;0.70;0.60;;;22.50;48.30;;;;;;5115284;27;20043;-40
2021/05/12 07:39:01;;;;;;;0.80;0.65;;;22.40;48.20;;;;;;5114957;27;20050;-40
2021/05/12 07:41:28;;;;;;;0.90;0.63;;;22.40;48.20;;;;;;5113368;28;20112;-41
2021/05/12 07:43:55;;;;;;;2.22;1.77;;;22.40;48.20;;;;;;5129465;27;20043;-41
2021/05/12 07:46:26;;;;;;;2.25;1.67;;;22.40;48.20;;;;;;5130796;27;20071;-39
2021/05/12 07:48:53;;;;;;;3.03;2.00;;;22.40;48.20;;;;;;5113396;28;20152;-39
2021/05/12 07:51:21;;;;;;;2.95;2.30;;;22.50;48.90;;;;;;5128957;27;20058;-39
2021/05/12 07:53:49;;;;;;;3.72;2.67;;;22.40;48.20;;;;;;5130167;27;20395;-40
2021/05/12 07:56:16;;;;;;;3.40;2.42;;;22.40;48.20;;;;;;5116761;27;20043;-43
2021/05/12 07:58:43;;;;;;;3.40;2.25;;;22.40;48.20;;;;;;5111088;27;20483;-40
2021/05/12 08:01:22;;;;;;;5.18;2.78;;;22.40;48.20;;;;;;5095324;28;20047;-43
2021/05/12 08:03:53;;;;;;;6.78;4.25;;;22.40;48.20;;;;;;5113492;28;20043;-40
2021/05/12 08:06:20;;;;;;;5.82;4.03;;;22.50;48.30;;;;;;5126008;27;20051;-39
2021/05/12 08:08:48;;;;;;;8.00;5.22;;;22.40;48.20;;;;;;5131503;27;20486;-39
2021/05/12 08:11:15;;;;;;;6.45;4.03;;;22.40;48.20;;;;;;5121178;27;20047;-38
2021/05/12 08:13:42;;;;;;;7.05;5.07;;;22.50;48.30;;;;;;5114223;27;20044;-40
2021/05/12 08:16:09;;;;;;;8.02;5.78;;;22.40;48.20;;;;;;5123248;27;20077;-39
2021/05/12 08:18:36;;;;;;;7.40;5.15;;;22.40;48.20;;;;;;5131423;27;20050;-41
2021/05/12 08:21:05;;;;;;;9.57;6.78;;;22.40;48.20;;;;;;5124470;27;20540;-39
2021/05/12 08:23:33;;;;;;;11.07;6.57;;;22.40;48.20;;;;;;5114177;27;20049;-39
2021/05/12 08:26:00;;;;;;;9.10;6.30;;;22.40;48.20;;;;;;5119604;27;20051;-40
2021/05/12 08:28:28;;;;;;;9.95;6.85;;;22.40;48.20;;;;;;5128054;27;20406;-39
2021/05/12 08:30:58;;;;;;;10.07;6.60;;;22.50;48.30;;;;;;5115598;27;20043;-40
2021/05/12 08:33:25;;;;;;;9.60;7.30;;;22.40;48.20;;;;;;5115991;27;20073;-39
2021/05/12 08:35:53;;;;;;;12.35;7.70;;;22.50;48.30;;;;;;5128408;27;20594;-40
2021/05/12 08:38:24;;;;;;;10.10;6.90;;;22.50;48.30;;;;;;5113088;28;20067;-40
2021/05/12 08:40:54;;;;;;;11.95;7.45;;;22.50;48.90;;;;;;5114012;27;20079;-40
2021/05/12 08:43:23;;;;;;;10.38;7.40;;;22.50;48.30;;;;;;5112902;28;20096;-40
2021/05/12 08:45:52;;;;;;;11.38;8.15;;;22.40;48.20;;;;;;5095315;28;20522;-40
2021/05/12 08:48:19;;;;;;;11.25;7.45;;;22.50;48.30;;;;;;5112973;28;20048;-40
2021/05/12 08:50:46;;;;;;;11.65;8.38;;;22.40;48.20;;;;;;5113050;27;20385;-41
2021/05/12 08:53:14;;;;;;;11.40;7.65;;;22.40;48.20;;;;;;5129994;27;20047;-39
2021/05/12 08:55:41;;;;;;;13.93;8.48;;;22.40;48.20;;;;;;5112709;28;20052;-39
2021/05/12 08:58:09;;;;;;;10.70;7.30;;;22.50;48.30;;;;;;5128980;27;20456;-39
2021/05/12 09:00:36;;;;;;;11.80;8.35;;;22.50;48.30;;;;;;5114547;27;20388;-39
2021/05/12 09:03:04;;;;;;;13.95;8.90;;;22.40;48.20;;;;;;5126762;27;20051;-41
2021/05/12 09:05:31;;;;;;;11.00;7.88;;;22.40;48.20;;;;;;5116936;27;20056;-41
2021/05/12 09:07:59;;;;;;;12.43;8.75;;;22.50;48.30;;;;;;5126579;27;20039;-40
2021/05/12 09:10:27;;;;;;;12.10;8.38;;;22.50;48.30;;;;;;5117450;27;20047;-40
2021/05/12 09:13:01;;;;;;;13.27;8.27;;;22.50;48.30;;;;;;5113269;28;20096;-40
2021/05/12 09:15:30;;;;;;;11.57;8.68;;;22.40;48.20;;;;;;5123330;28;20058;-39
2021/05/12 09:18:03;;;;;;;11.73;8.20;;;22.40;48.20;;;;;;5118428;28;20055;-40
2021/05/12 09:20:39;;;;;;;16.23;9.10;;;22.40;48.20;;;;;;5114735;28;20535;-44
2021/05/12 09:23:11;;;;;;;12.68;8.43;;;22.40;48.20;;;;;;5113791;28;20411;-42
2021/05/12 09:25:39;;;;;;;12.65;8.52;;;22.50;48.30;;;;;;5112244;28;20487;-39
2021/05/12 09:28:17;;;;;;;12.85;8.75;;;22.50;48.30;;;;;;5113548;28;20108;-40
2021/05/12 09:31:00;;;;;;;12.98;8.57;;;22.40;48.20;;;;;;5109661;28;20123;-39
2021/05/12 09:33:30;;;;;;;12.98;9.02;;;22.40;48.20;;;;;;5110726;28;20058;-39
2021/05/12 09:35:59;;;;;;;13.98;9.18;;;22.40;48.20;;;;;;5109463;28;20419;-40
2021/05/12 09:38:32;;;;;;;13.45;9.15;;;22.50;48.30;;;;;;5099387;28;20384;-42
2021/05/12 09:41:13;;;;;;;12.50;8.65;;;22.40;48.20;;;;;;5110735;28;20383;-40
2021/05/12 09:43:50;;;;;;;14.55;8.90;;;22.40;48.20;;;;;;5109694;28;20127;-39
2021/05/12 09:46:26;;;;;;;14.02;9.85;;;22.40;48.20;;;;;;5110022;28;20411;-40
2021/05/12 09:48:59;;;;;;;12.00;8.60;;;22.40;48.20;;;;;;5110259;28;20085;-40
2021/05/12 09:51:31;;;;;;;12.13;8.68;;;22.40;48.20;;;;;;5108564;28;20097;-40
2021/05/12 09:54:12;;;;;;;11.60;8.98;;;22.40;48.20;;;;;;5110419;28;20100;-39
2021/05/12 09:56:46;;;;;;;12.40;8.65;;;22.50;48.30;;;;;;5110028;28;20418;-39
2021/05/12 09:59:15;;;;;;;14.43;9.52;;;22.50;48.30;;;;;;5108187;28;20047;-39
2021/05/12 10:01:45;;;;;;;14.45;9.50;;;22.50;48.30;;;;;;5099746;28;20065;-40
2021/05/12 10:04:22;;;;;;;11.13;8.38;;;22.40;48.20;;;;;;5109605;28;20410;-39
2021/05/12 10:06:50;;;;;;;14.40;9.73;;;22.50;48.30;;;;;;5109362;28;20100;-40
2021/05/12 10:09:22;;;;;;;13.40;9.32;;;22.40;48.20;;;;;;5110248;28;20051;-40
2021/05/12 10:12:03;;;;;;;13.63;9.43;;;22.40;48.20;;;;;;5108659;28;20101;-39
2021/05/12 10:14:33;;;;;;;13.38;9.65;;;22.40;48.20;;;;;;5110674;28;20052;-40
2021/05/12 10:17:04;;;;;;;14.00;9.68;;;22.50;48.40;;;;;;5114358;28;20096;-40
2021/05/12 10:19:33;;;;;;;11.45;8.75;;;22.40;48.20;;;;;;5112810;28;20044;-44
2021/05/12 10:22:02;;;;;;;12.27;9.07;;;22.50;48.30;;;;;;5113813;28;20076;-39
2021/05/12 10:24:32;;;;;;;14.73;9.50;;;22.50;48.40;;;;;;5113154;28;20406;-40
2021/05/12 10:27:02;;;;;;;12.93;9.63;;;22.50;48.40;;;;;;5113247;28;20039;-40
2021/05/12 10:29:31;;;;;;;11.18;8.68;;;22.50;48.40;;;;;;5114363;28;20066;-41
2021/05/12 10:31:59;;;;;;;12.43;9.23;;;22.50;48.30;;;;;;5112164;27;20108;-40
2021/05/12 10:34:39;;;;;;;13.60;9.43;;;22.50;48.30;;;;;;5113496;28;21314;-40
2021/05/12 10:37:36;;;;;;;12.73;9.35;;;22.50;48.30;;;;;;5113839;28;20052;-39
2021/05/12 10:40:07;;;;;;;13.23;9.60;;;22.50;48.30;;;;;;5057784;28;20044;-40
2021/05/12 10:43:02;;;;;;;12.75;9.02;;;22.50;48.40;;;;;;5060603;28;20496;-39
2021/05/12 10:45:47;;;;;;;13.55;9.10;;;22.50;48.40;;;;;;5059714;28;20053;-39
2021/05/12 10:48:32;;;;;;;12.70;9.63;;;22.50;48.40;;;;;;5056472;28;20107;-39
2021/05/12 10:51:02;;;;;;;14.18;9.45;;;22.50;48.40;;;;;;5059422;28;20045;-40
2021/05/12 10:53:31;;;;;;;14.23;9.65;;;22.50;48.40;;;;;;5059423;28;20122;-40
2021/05/12 10:55:58;;;;;;;13.93;10.02;;;22.50;48.40;;;;;;5058133;28;20045;-39
2021/05/12 10:58:28;;;;;;;12.95;9.15;;;22.50;48.40;;;;;;5060658;28;20580;-40
2021/05/12 11:00:59;;;;;;;12.98;9.25;;;22.50;48.40;;;;;;5059236;28;20586;-40
2021/05/12 11:03:49;;;;;;;13.50;9.73;;;22.50;48.40;;;;;;5058205;28;20037;-40
2021/05/12 11:06:18;;;;;;;13.57;9.55;;;22.50;49.00;;;;;;5060151;28;20774;-43
2021/05/12 11:09:06;;;;;;;13.88;10.10;;;22.40;48.30;;;;;;5057156;28;20072;-39
2021/05/12 11:11:48;;;;;;;12.93;9.75;;;22.50;48.40;;;;;;5056830;28;20118;-39
2021/05/12 11:14:31;;;;;;;13.20;10.00;;;22.50;48.40;;;;;;5059113;28;20103;-41
2021/05/12 11:17:09;;;;;;;14.45;10.35;;;22.50;48.50;;;;;;5079901;28;20059;-39
2021/05/12 11:19:44;;;;;;;12.63;9.80;;;22.50;48.40;;;;;;5092049;28;20580;-40
2021/05/12 11:22:43;;;;;;;13.35;9.38;;;22.50;48.40;;;;;;5092183;28;20072;-40
2021/05/12 11:25:45;;;;;;;11.85;9.07;;;22.50;48.40;;;;;;5091904;28;20044;-39
2021/05/12 11:33:39;;;;;;;12.55;8.90;;;22.50;48.40;;;;;;5090269;28;20051;-39
2021/05/12 11:36:14;;;;;;;13.60;10.23;;;22.50;48.40;;;;;;5090619;28;20066;-39
2021/05/12 11:38:42;;;;;;;13.57;9.70;;;22.50;48.50;;;;;;5092878;28;20101;-42
2021/05/12 11:41:16;;;;;;;12.15;8.80;;;22.50;48.40;;;;;;5091283;28;20389;-42
2021/05/12 11:43:56;;;;;;;13.63;9.38;;;22.50;48.50;;;;;;5090491;28;20085;-40
2021/05/12 11:46:35;;;;;;;13.57;9.80;;;22.50;48.40;;;;;;5092321;28;20121;-40
2021/05/12 11:49:07;;;;;;;13.65;9.35;;;22.50;48.40;;;;;;5091156;28;20094;-44
2021/05/12 11:51:39;;;;;;;14.43;9.27;;;22.50;48.40;;;;;;5090503;28;20044;-40
2021/05/12 11:54:17;;;;;;;12.85;9.27;;;22.50;48.40;;;;;;5092091;28;20060;-39
2021/05/12 11:56:49;;;;;;;13.60;9.77;;;22.50;48.40;;;;;;5090273;28;20097;-39
2021/05/12 11:59:23;;;;;;;12.47;9.53;;;22.50;48.40;;;;;;5091666;28;20595;-39
2021/05/12 12:01:59;;;;;;;13.30;9.85;;;22.50;48.50;;;;;;5091443;28;20044;-42
2021/05/12 12:04:35;;;;;;;12.93;9.40;;;22.50;48.50;;;;;;5090124;28;20044;-40
2021/05/12 12:07:04;;;;;;;14.00;10.00;;;22.50;48.50;;;;;;5091772;28;20044;-41
2021/05/12 12:09:32;;;;;;;14.25;9.80;;;22.50;48.50;;;;;;5091275;28;20044;-39
2021/05/12 12:12:00;;;;;;;13.68;9.50;;;22.50;48.50;;;;;;5089992;28;20048;-40
2021/05/12 12:14:35;;;;;;;14.60;10.13;;;22.50;48.50;;;;;;5098738;28;20104;-39
2021/05/12 12:17:11;;;;;;;13.18;10.05;;;22.50;48.50;;;;;;5110559;28;20051;-40
2021/05/12 12:19:39;;;;;;;13.27;9.90;;;22.50;48.50;;;;;;5111631;28;20095;-39
2021/05/12 12:22:06;;;;;;;13.30;9.57;;;22.50;48.50;;;;;;5111870;28;20047;-39
2021/05/12 12:24:34;;;;;;;11.75;9.60;;;22.50;48.50;;;;;;5099306;28;20112;-41
2021/05/12 12:27:03;;;;;;;13.50;10.30;;;22.50;48.50;;;;;;5111637;28;20044;-40
2021/05/12 12:29:32;;;;;;;13.90;9.63;;;22.50;48.50;;;;;;5111042;28;20044;-39
2021/05/12 12:32:07;;;;;;;11.98;9.25;;;22.50;48.50;;;;;;5109807;28;20055;-41
2021/05/12 12:34:39;;;;;;;13.73;9.82;;;22.50;48.50;;;;;;5112011;28;20415;-40
2021/05/12 12:37:12;;;;;;;12.73;9.60;;;22.50;48.50;;;;;;5110118;28;20124;-40
2021/05/12 12:39:53;;;;;;;13.57;9.57;;;22.50;48.50;;;;;;5111763;27;20047;-43
2021/05/12 12:42:25;;;;;;;13.15;9.05;;;22.50;48.50;;;;;;5111806;28;20047;-43
2021/05/12 12:44:52;;;;;;;13.15;9.60;;;22.50;48.50;;;;;;5108971;28;20087;-44
2021/05/12 12:47:22;;;;;;;14.55;10.50;;;22.50;48.50;;;;;;5111416;27;20511;-41
2021/05/12 12:49:56;;;;;;;13.07;9.43;;;22.50;48.50;;;;;;5110603;28;20039;-41
2021/05/12 12:52:26;;;;;;;14.10;9.93;;;22.50;48.50;;;;;;5108926;28;20097;-41
2021/05/12 12:55:00;;;;;;;14.05;10.18;;;22.50;48.50;;;;;;5111241;28;20113;-41
2021/05/12 12:57:38;;;;;;;12.73;9.13;;;22.50;48.50;;;;;;5109916;28;20048;-42
2021/05/12 13:00:17;;;;;;;13.43;9.75;;;22.50;48.50;;;;;;5111215;28;20453;-41
2021/05/12 13:03:04;;;;;;;14.93;10.18;;;22.50;48.50;;;;;;5111653;28;20048;-42